Time;durP1;ratioP1;P1;durP2;ratioP2;P2;SDS_P1;SDS_P2;PMS_P1;PMS_P2;Temp;Humidity;BMP_temperature;BMP_pressure;BME280_temperature;BME280_humidity;BME280_pressure;Samples;Min_cycle;Max_cycle;Signal;HPM_P1;HPM_P2
2022/01/18 00:01:50;;;;;;;1.70;0.80;;;;;;;1.49;69.52;94044.94;5022413;28;20030;-78
2022/01/18 00:04:16;;;;;;;2.42;1.30;;;;;;;1.54;69.53;94037.09;5022564;28;20026;-79
2022/01/18 00:06:45;;;;;;;3.00;1.20;;;;;;;1.52;69.15;94021.56;5022667;28;20068;-79
2022/01/18 00:09:11;;;;;;;4.05;1.73;;;;;;;1.53;68.73;94046.03;5037872;28;20026;-77
2022/01/18 00:11:45;;;;;;;2.90;1.63;;;;;;;1.64;68.06;94055.56;5022410;28;20350;-77
2022/01/18 00:14:24;;;;;;;5.32;1.88;;;;;;;1.58;67.87;94044.22;5022400;28;20064;-78
2022/01/18 00:19:55;;;;;;;3.10;1.70;;;;;;;1.54;67.07;94052.84;5021924;28;20034;-78
2022/01/18 00:22:23;;;;;;;2.88;1.75;;;;;;;1.56;66.82;94067.31;5022394;28;20053;-77
2022/01/18 00:24:49;;;;;;;4.07;1.73;;;;;;;1.54;66.15;94052.84;5022336;28;20038;-77
2022/01/18 00:27:17;;;;;;;2.85;1.50;;;;;;;1.47;65.24;94071.47;5037706;28;20030;-77
2022/01/18 00:29:54;;;;;;;4.55;1.70;;;;;;;1.52;64.98;94063.59;5023416;28;20049;-77
2022/01/18 00:32:33;;;;;;;3.60;1.58;;;;;;;1.59;63.89;94051.06;5041624;28;20097;-77
2022/01/18 00:34:58;;;;;;;4.35;1.88;;;;;;;1.61;63.74;94069.22;5026264;28;20028;-77
2022/01/18 00:39:50;;;;;;;3.28;1.60;;;;;;;1.63;63.08;94030.34;5026304;28;20025;-77
2022/01/18 00:42:15;;;;;;;3.58;2.00;;;;;;;1.66;63.12;94037.69;5041304;28;20026;-77
2022/01/18 00:44:41;;;;;;;4.13;2.00;;;;;;;1.58;62.98;94023.19;5026126;28;20026;-78
2022/01/18 00:47:07;;;;;;;2.97;1.80;;;;;;;1.55;62.91;94028.97;5026177;28;20052;-78
2022/01/18 00:49:40;;;;;;;3.90;2.22;;;;;;;1.55;62.98;94057.06;5024479;28;20330;-78
2022/01/18 00:52:06;;;;;;;4.72;1.90;;;;;;;1.50;63.60;94057.81;5028704;28;20296;-78
2022/01/18 00:54:38;;;;;;;3.97;2.10;;;;;;;1.51;63.57;94071.75;5026057;28;20018;-78
2022/01/18 00:57:04;;;;;;;4.97;2.53;;;;;;;1.50;63.83;94062.28;5025951;28;20014;-78
2022/01/18 00:59:30;;;;;;;3.83;1.75;;;;;;;1.53;63.97;94073.09;5025514;28;20029;-77
2022/01/18 01:01:55;;;;;;;4.03;1.85;;;;;;;1.55;63.38;94113.03;5026003;28;20109;-78
2022/01/18 01:04:24;;;;;;;3.83;1.98;;;;;;;1.48;63.33;94091.41;5025830;28;20021;-78
2022/01/18 01:06:49;;;;;;;3.58;1.83;;;;;;;1.52;62.96;94104.84;5025673;28;20074;-78
2022/01/18 01:09:14;;;;;;;3.45;1.65;;;;;;;1.53;63.86;94124.84;5025620;28;20045;-77
2022/01/18 01:11:41;;;;;;;4.18;2.17;;;;;;;1.49;64.23;94110.63;5025575;28;20072;-78
2022/01/18 01:14:12;;;;;;;5.35;2.22;;;;;;;1.41;65.17;94117.13;5025380;28;20122;-81
2022/01/18 01:19:33;;;;;;;6.45;2.00;;;;;;;1.37;65.33;94129.16;5025534;28;20101;-81
2022/01/18 01:43:31;;;;;;;5.03;2.67;;;;;;;0.16;77.75;94178.91;5025089;28;20068;-80
2022/01/18 01:45:58;;;;;;;5.53;2.72;;;;;;;0.09;78.31;94193.97;5025136;28;20025;-79
2022/01/18 01:48:26;;;;;;;5.07;2.47;;;;;;;0.04;78.33;94190.47;5024817;28;20030;-81
2022/01/18 01:51:01;;;;;;;7.00;3.00;;;;;;;0.05;76.14;94200.72;5024972;28;20036;-80
2022/01/18 01:53:27;;;;;;;5.60;2.65;;;;;;;-0.03;73.86;94183.56;5024996;28;20219;-80
2022/01/18 01:55:53;;;;;;;6.28;2.15;;;;;;;-0.01;72.31;94191.19;5024726;28;20057;-81
2022/01/18 01:58:21;;;;;;;4.50;1.85;;;;;;;-0.02;71.34;94173.88;5024836;28;20228;-81
2022/01/18 02:01:02;;;;;;;5.50;2.33;;;;;;;0.03;70.40;94183.66;5024814;28;20021;-81
2022/01/18 02:03:28;;;;;;;3.70;1.70;;;;;;;-0.04;67.80;94191.66;5024754;28;20033;-81
2022/01/18 02:05:53;;;;;;;3.38;1.50;;;;;;;-0.02;66.95;94226.28;5024613;28;20276;-80
2022/01/18 02:08:20;;;;;;;3.80;1.85;;;;;;;-0.02;65.37;94227.09;5039813;28;20017;-80
2022/01/18 02:10:45;;;;;;;3.88;1.60;;;;;;;-0.06;63.97;94240.91;5024555;28;20033;-81
2022/01/18 02:13:12;;;;;;;3.67;1.70;;;;;;;0.02;62.68;94245.78;5024241;28;20030;-81
2022/01/18 02:15:42;;;;;;;6.80;1.65;;;;;;;-0.12;60.43;94231.38;5024436;28;20316;-80
2022/01/18 02:23:36;;;;;;;5.05;1.75;;;;;;;-0.36;56.22;94276.03;5024390;28;20044;-80
2022/01/18 02:26:02;;;;;;;2.10;0.85;;;;;;;-0.48;56.15;94264.81;5024343;28;20044;-79
2022/01/18 02:28:28;;;;;;;3.53;1.33;;;;;;;-0.55;55.03;94261.53;5024226;28;20018;-79
2022/01/18 02:30:54;;;;;;;1.92;0.90;;;;;;;-0.56;55.42;94262.56;5024039;28;20174;-78
2022/01/18 02:33:20;;;;;;;1.80;1.00;;;;;;;-0.58;55.08;94272.47;5039337;28;20014;-78
2022/01/18 02:35:46;;;;;;;3.85;1.17;;;;;;;-0.64;53.36;94287.28;5024024;28;20017;-78
2022/01/18 02:38:12;;;;;;;1.95;0.80;;;;;;;-0.67;53.21;94288.56;5023836;28;20041;-78
2022/01/18 02:40:38;;;;;;;3.97;0.95;;;;;;;-0.76;52.46;94299.63;5024084;28;20050;-78
2022/01/18 02:45:58;;;;;;;1.38;0.55;;;;;;;-0.95;51.82;94293.75;5030662;28;20034;-77
2022/01/18 02:48:24;;;;;;;1.95;0.82;;;;;;;-0.96;51.95;94303.38;5023926;28;20068;-78
2022/01/18 02:50:50;;;;;;;3.97;1.30;;;;;;;-0.98;51.92;94315.13;5023827;28;20049;-78
2022/01/18 02:53:16;;;;;;;1.52;0.88;;;;;;;-1.09;52.25;94322.75;5023005;28;20026;-78
2022/01/18 02:56:03;;;;;;;4.32;1.17;;;;;;;-1.16;51.73;94324.72;5023669;28;20032;-78
2022/01/18 02:58:33;;;;;;;1.30;0.70;;;;;;;-1.17;52.11;94330.94;5023523;28;20065;-78
2022/01/18 03:03:32;;;;;;;1.48;0.85;;;;;;;-1.21;51.48;94329.81;5023662;28;20040;-78
2022/01/18 03:05:58;;;;;;;4.15;1.35;;;;;;;-1.29;51.46;94344.03;5023645;28;20110;-78
2022/01/18 03:08:24;;;;;;;1.38;0.63;;;;;;;-1.31;51.67;94347.91;5023449;28;20017;-78
2022/01/18 03:10:49;;;;;;;2.88;1.23;;;;;;;-1.32;51.43;94365.41;5022029;28;20018;-78
2022/01/18 03:13:17;;;;;;;3.67;1.33;;;;;;;-1.30;51.42;94363.38;5038557;28;20292;-78
2022/01/18 03:15:42;;;;;;;1.95;1.10;;;;;;;-1.43;51.89;94374.81;5023337;28;20037;-78
2022/01/18 03:18:08;;;;;;;4.38;0.95;;;;;;;-1.58;52.25;94368.44;5023250;28;20018;-78
2022/01/18 03:20:35;;;;;;;2.83;1.20;;;;;;;-1.62;51.98;94376.72;5022985;28;20018;-80
2022/01/18 03:23:00;;;;;;;2.15;1.00;;;;;;;-1.62;51.85;94370.72;5023284;28;20024;-80
2022/01/18 03:28:04;;;;;;;2.90;1.27;;;;;;;-1.70;52.87;94384.88;5023209;28;20327;-77
2022/01/18 03:30:30;;;;;;;2.08;1.10;;;;;;;-1.72;51.99;94397.38;5023410;28;20022;-77
2022/01/18 03:32:56;;;;;;;1.77;0.90;;;;;;;-1.76;52.16;94411.13;5023123;28;20021;-77
2022/01/18 03:35:23;;;;;;;2.22;0.80;;;;;;;-1.70;52.27;94394.56;5023042;28;20311;-77
2022/01/18 03:37:48;;;;;;;3.42;1.20;;;;;;;-1.77;51.60;94426.00;5022866;28;20026;-78
2022/01/18 03:40:14;;;;;;;3.10;1.17;;;;;;;-1.71;51.90;94419.09;5023062;28;20276;-78
2022/01/18 03:42:45;;;;;;;3.53;1.25;;;;;;;-1.69;52.04;94427.50;5022752;28;20088;-78
2022/01/18 03:45:14;;;;;;;1.42;0.70;;;;;;;-1.72;51.91;94420.13;5022971;28;20034;-80
2022/01/18 03:47:41;;;;;;;1.90;0.90;;;;;;;-1.78;51.34;94415.78;5038059;28;20029;-79
2022/01/18 03:50:08;;;;;;;4.25;1.20;;;;;;;-1.74;51.61;94424.75;5022680;28;20378;-79
2022/01/18 03:52:33;;;;;;;2.22;1.00;;;;;;;-1.74;51.55;94420.34;5022877;28;20026;-79
2022/01/18 03:54:59;;;;;;;1.60;0.90;;;;;;;-1.73;51.04;94439.41;5038254;28;20044;-79
2022/01/18 03:57:25;;;;;;;1.58;0.80;;;;;;;-1.73;51.14;94453.31;5022544;28;20347;-79
2022/01/18 03:59:50;;;;;;;1.45;0.88;;;;;;;-1.79;50.90;94448.97;5022751;28;20374;-79
2022/01/18 04:02:16;;;;;;;2.25;1.10;;;;;;;-1.74;51.51;94456.91;5022584;28;20320;-81
2022/01/18 04:04:42;;;;;;;5.97;1.48;;;;;;;-1.78;51.38;94462.81;5021391;28;20034;-81
2022/01/18 04:07:07;;;;;;;1.92;1.02;;;;;;;-1.80;51.76;94462.25;5036773;28;20030;-80
2022/01/18 04:09:33;;;;;;;2.92;1.10;;;;;;;-1.83;51.50;94474.72;5022690;28;20026;-79
2022/01/18 04:11:59;;;;;;;4.78;1.17;;;;;;;-1.78;51.69;94478.50;5022825;28;20021;-80
2022/01/18 04:14:24;;;;;;;2.65;1.10;;;;;;;-1.86;51.42;94469.13;5022324;28;20042;-80
2022/01/18 04:27:35;;;;;;;3.33;0.77;;;;;;;-1.94;51.96;94513.84;5023030;28;20076;-78
2022/01/18 04:30:00;;;;;;;3.85;1.25;;;;;;;-1.98;52.20;94526.56;5022487;28;20076;-79
2022/01/18 04:32:26;;;;;;;3.75;1.10;;;;;;;-1.88;52.05;94533.88;5022527;28;20026;-79
2022/01/18 04:34:51;;;;;;;4.30;1.55;;;;;;;-1.95;51.83;94522.72;5022311;28;20224;-79
2022/01/18 04:37:16;;;;;;;1.88;1.10;;;;;;;-1.98;52.17;94526.56;5022341;28;20312;-79
2022/01/18 04:39:45;;;;;;;2.80;1.38;;;;;;;-1.95;52.25;94533.97;5022350;28;20026;-78
2022/01/18 04:42:19;;;;;;;3.95;1.00;;;;;;;-1.92;51.93;94553.63;5022134;28;20245;-78
2022/01/18 04:50:12;;;;;;;7.28;1.23;;;;;;;-1.98;51.82;94580.63;5023308;28;20068;-78
2022/01/18 04:52:38;;;;;;;4.10;1.58;;;;;;;-1.99;51.99;94585.06;5022240;28;20026;-78
2022/01/18 04:55:04;;;;;;;4.93;1.27;;;;;;;-1.95;52.28;94595.88;5022440;28;20017;-79
2022/01/18 05:00:15;;;;;;;2.65;1.23;;;;;;;-1.98;52.31;94588.47;5022170;28;20093;-79
2022/01/18 05:02:40;;;;;;;2.72;1.42;;;;;;;-1.95;52.69;94583.63;5022069;28;20093;-79
2022/01/18 05:05:06;;;;;;;3.08;1.20;;;;;;;-1.96;52.11;94589.03;5022128;28;20032;-79
2022/01/18 05:07:32;;;;;;;3.67;1.40;;;;;;;-1.94;52.78;94593.03;5020871;28;20026;-79
2022/01/18 05:09:58;;;;;;;5.57;1.50;;;;;;;-1.95;52.50;94588.03;5021990;28;20021;-79
2022/01/18 05:12:57;;;;;;;3.88;1.65;;;;;;;-1.91;52.72;94590.00;5037209;28;20340;-79
2022/01/18 05:23:04;;;;;;;1.40;0.82;;;;;;;-2.02;53.19;94614.22;5025506;28;20204;-79
2022/01/18 05:25:30;;;;;;;4.50;2.08;;;;;;;-2.02;52.89;94609.78;5025645;28;20214;-79
2022/01/18 05:27:57;;;;;;;2.63;1.35;;;;;;;-2.02;53.01;94612.41;5025192;28;20040;-79
2022/01/18 05:30:23;;;;;;;1.88;1.15;;;;;;;-1.98;53.00;94631.06;5025155;28;20032;-79
2022/01/18 05:32:49;;;;;;;3.40;1.35;;;;;;;-1.93;53.10;94641.69;5025197;28;20025;-80
2022/01/18 05:35:15;;;;;;;3.53;1.33;;;;;;;-1.97;53.30;94635.28;5024998;28;20022;-78
2022/01/18 05:37:40;;;;;;;2.97;1.30;;;;;;;-2.08;53.27;94635.97;5025079;28;20093;-78
2022/01/18 05:40:06;;;;;;;3.15;1.30;;;;;;;-2.09;53.29;94640.41;5025147;28;20021;-78
2022/01/18 05:42:32;;;;;;;4.35;1.50;;;;;;;-2.12;53.51;94626.97;5040492;28;20072;-78
2022/01/18 05:44:57;;;;;;;6.35;1.35;;;;;;;-2.15;53.74;94632.63;5024973;28;20312;-78
2022/01/18 05:47:24;;;;;;;3.38;1.58;;;;;;;-2.13;53.58;94638.44;5024564;28;20256;-78
2022/01/18 05:49:49;;;;;;;3.33;1.52;;;;;;;-2.08;53.77;94641.19;5025050;28;20080;-78
2022/01/18 05:52:15;;;;;;;2.92;1.27;;;;;;;-2.06;53.76;94641.78;5024860;28;20084;-78
2022/01/18 05:54:41;;;;;;;2.33;1.00;;;;;;;-2.09;53.69;94653.47;5024583;28;20041;-78
2022/01/18 05:57:06;;;;;;;3.22;1.45;;;;;;;-2.03;53.58;94643.97;5024715;28;20053;-78
2022/01/18 05:59:37;;;;;;;3.55;1.48;;;;;;;-2.14;53.63;94652.50;5024852;28;20026;-78
2022/01/18 06:02:15;;;;;;;4.30;0.90;;;;;;;-2.10;53.97;94658.91;5024865;28;20097;-79
2022/01/18 06:07:25;;;;;;;5.63;1.40;;;;;;;-2.17;53.99;94668.63;5024462;28;20098;-81
2022/01/18 06:09:53;;;;;;;3.45;1.10;;;;;;;-2.16;54.14;94688.50;5039866;28;20205;-80
2022/01/18 06:12:19;;;;;;;2.85;1.27;;;;;;;-2.16;54.21;94675.44;5039690;28;20379;-80
2022/01/18 06:14:45;;;;;;;2.38;1.00;;;;;;;-2.10;53.97;94671.97;5024474;28;20021;-80
2022/01/18 06:17:11;;;;;;;2.25;1.02;;;;;;;-2.20;54.26;94664.59;5024507;28;20080;-79
2022/01/18 06:19:36;;;;;;;3.33;1.40;;;;;;;-2.20;54.47;94689.94;5023351;28;20204;-79
2022/01/18 06:22:02;;;;;;;2.75;1.17;;;;;;;-2.15;54.00;94697.94;5024283;28;20089;-79
2022/01/18 06:24:27;;;;;;;2.13;1.30;;;;;;;-2.23;54.78;94706.84;5024295;28;20048;-80
2022/01/18 06:26:53;;;;;;;1.85;0.70;;;;;;;-2.24;54.50;94721.72;5023420;28;20332;-81
2022/01/18 06:29:20;;;;;;;3.80;1.00;;;;;;;-2.23;54.38;94699.00;5023792;28;20017;-79
2022/01/18 06:31:46;;;;;;;1.98;1.10;;;;;;;-2.20;54.16;94703.00;5024107;28;20030;-80
2022/01/18 06:34:14;;;;;;;3.50;1.30;;;;;;;-2.18;54.48;94695.75;5024062;28;20220;-80
2022/01/18 06:36:43;;;;;;;2.78;1.33;;;;;;;-2.19;54.83;94710.63;5023605;28;20022;-78
2022/01/18 06:39:09;;;;;;;5.40;1.50;;;;;;;-2.09;54.33;94695.25;5023979;28;20029;-77
2022/01/18 06:41:34;;;;;;;3.40;1.38;;;;;;;-2.07;54.42;94682.78;5022718;28;20053;-77
2022/01/18 06:44:00;;;;;;;3.83;1.08;;;;;;;-2.04;54.13;94692.00;5023793;28;20021;-78
2022/01/18 06:46:26;;;;;;;4.20;1.48;;;;;;;-2.08;54.33;94694.25;5023849;28;20022;-78
2022/01/18 06:48:51;;;;;;;10.52;1.67;;;;;;;-2.14;54.54;94676.00;5023581;28;20395;-77
2022/01/18 06:51:17;;;;;;;3.40;1.05;;;;;;;-2.10;54.20;94687.63;5023382;28;20093;-77
2022/01/18 06:53:47;;;;;;;4.80;1.63;;;;;;;-2.06;54.07;94687.00;5023416;28;20028;-77
2022/01/18 06:56:17;;;;;;;3.33;1.38;;;;;;;-2.03;53.99;94696.22;5023532;28;20045;-81
2022/01/18 06:58:44;;;;;;;2.97;1.98;;;;;;;-1.99;54.38;94710.47;5023707;28;20228;-81
2022/01/18 07:01:11;;;;;;;2.35;0.95;;;;;;;-1.95;54.00;94729.94;5038587;28;20040;-80
2022/01/18 07:03:37;;;;;;;3.22;1.40;;;;;;;-1.75;55.85;94715.88;5023622;28;20025;-69
2022/01/18 07:06:03;;;;;;;3.47;1.10;;;;;;;-1.80;53.19;94713.91;5023498;28;20025;-79
2022/01/18 07:08:30;;;;;;;6.63;1.65;;;;;;;-1.80;53.10;94726.97;5023465;28;20211;-80
2022/01/18 07:10:56;;;;;;;8.82;1.60;;;;;;;-1.89;53.41;94721.22;5023191;28;20048;-82
2022/01/18 07:13:21;;;;;;;6.45;1.65;;;;;;;-1.87;53.33;94737.50;5023129;28;20042;-83
2022/01/18 07:15:47;;;;;;;2.92;1.23;;;;;;;-1.83;53.46;94746.50;5023204;28;20021;-80
2022/01/18 07:18:13;;;;;;;3.42;1.35;;;;;;;-1.85;53.37;94742.53;5022723;28;20026;-80
2022/01/18 07:20:40;;;;;;;2.15;1.17;;;;;;;-1.83;52.97;94741.28;5023103;28;20025;-84
2022/01/18 07:23:11;;;;;;;3.13;0.90;;;;;;;-1.80;53.26;94742.66;5023270;28;20032;-84
2022/01/18 07:25:43;;;;;;;3.55;1.35;;;;;;;-1.83;53.34;94761.41;5038712;28;20049;-84
2022/01/18 07:28:10;;;;;;;3.00;1.38;;;;;;;-1.83;53.52;94766.63;5023306;28;20021;-85
2022/01/18 07:30:36;;;;;;;3.10;1.27;;;;;;;-1.86;53.42;94746.91;5021996;28;20026;-82
2022/01/18 07:33:02;;;;;;;5.80;1.17;;;;;;;-1.79;53.58;94773.03;5023152;28;20018;-83
2022/01/18 07:35:28;;;;;;;2.25;1.10;;;;;;;-1.80;53.66;94783.69;5023183;28;20017;-83
2022/01/18 07:37:56;;;;;;;2.67;1.40;;;;;;;-1.74;53.67;94762.72;5022497;28;20346;-82
2022/01/18 07:40:22;;;;;;;3.25;1.60;;;;;;;-1.77;53.72;94762.34;5022911;28;20028;-82
2022/01/18 07:42:47;;;;;;;4.15;0.93;;;;;;;-1.72;53.60;94746.81;5022865;28;20041;-82
2022/01/18 07:45:13;;;;;;;5.38;1.30;;;;;;;-1.74;53.72;94772.38;5023035;28;20018;-81
2022/01/18 07:47:39;;;;;;;2.28;0.80;;;;;;;-1.72;53.38;94765.91;5022948;28;20100;-84
2022/01/18 07:50:05;;;;;;;1.85;0.95;;;;;;;-1.71;53.71;94774.56;5038362;28;20367;-79
2022/01/18 07:52:32;;;;;;;2.35;1.30;;;;;;;-1.71;53.53;94790.22;5022754;28;20014;-81
2022/01/18 07:54:57;;;;;;;4.75;1.75;;;;;;;-1.64;53.79;94780.53;5022392;28;20018;-80
2022/01/18 07:57:23;;;;;;;9.65;1.10;;;;;;;-1.59;53.74;94793.75;5022201;28;20088;-80
2022/01/18 07:59:48;;;;;;;2.72;1.30;;;;;;;-1.52;53.13;94784.06;5037853;28;20049;-81
2022/01/18 08:02:14;;;;;;;1.75;1.05;;;;;;;-1.43;53.19;94795.81;5021545;28;20038;-80
2022/01/18 08:04:39;;;;;;;3.05;1.35;;;;;;;-1.39;52.73;94813.72;5019840;28;20018;-81
2022/01/18 08:07:05;;;;;;;3.58;1.20;;;;;;;-1.35;53.47;94825.34;5020906;28;20030;-80
2022/01/18 08:09:30;;;;;;;3.22;1.40;;;;;;;-1.33;53.45;94823.31;5020966;28;20254;-80
2022/01/18 08:11:56;;;;;;;6.22;1.63;;;;;;;-1.23;52.79;94813.16;5020833;28;20018;-81
2022/01/18 08:14:22;;;;;;;2.92;1.17;;;;;;;-1.14;52.40;94804.03;5021305;28;20335;-80
2022/01/18 08:17:00;;;;;;;3.53;1.60;;;;;;;-1.07;52.08;94809.97;5037757;28;20026;-81
2022/01/18 08:19:33;;;;;;;3.17;1.50;;;;;;;-1.03;52.11;94834.69;5021230;28;20029;-81
2022/01/18 08:21:59;;;;;;;5.10;1.50;;;;;;;-0.99;51.85;94814.13;5022389;28;20026;-82
2022/01/18 08:24:25;;;;;;;3.13;1.45;;;;;;;-0.95;51.47;94843.28;5022637;28;20093;-81
2022/01/18 08:26:51;;;;;;;2.47;1.23;;;;;;;-1.05;51.48;94813.19;5037665;28;20034;-80
2022/01/18 08:29:17;;;;;;;3.90;1.50;;;;;;;-0.96;51.49;94818.13;5022345;28;20247;-82
2022/01/18 08:31:42;;;;;;;1.27;0.75;;;;;;;-1.02;51.93;94814.56;5022525;28;20215;-81
2022/01/18 08:34:08;;;;;;;4.10;1.42;;;;;;;-0.97;51.90;94829.63;5022749;28;20052;-82
2022/01/18 08:36:35;;;;;;;4.15;1.52;;;;;;;-0.94;51.15;94823.94;5022379;28;20025;-82
2022/01/18 08:39:01;;;;;;;4.82;1.60;;;;;;;-0.91;50.64;94831.38;5037718;28;20029;-82
2022/01/18 08:41:27;;;;;;;3.97;1.00;;;;;;;-0.86;49.92;94826.28;5020955;28;20426;-81
2022/01/18 08:43:53;;;;;;;2.58;1.50;;;;;;;-0.83;49.70;94812.75;5037545;28;20279;-81
2022/01/18 08:46:20;;;;;;;2.88;1.13;;;;;;;-0.77;49.94;94832.84;5022341;28;20010;-81
2022/01/18 08:48:46;;;;;;;4.85;1.98;;;;;;;-0.63;50.01;94829.03;5022364;28;20189;-80
2022/01/18 08:51:11;;;;;;;3.58;1.63;;;;;;;-0.55;49.58;94863.81;5023965;28;20028;-80
2022/01/18 08:53:38;;;;;;;9.55;1.90;;;;;;;-0.56;49.08;94828.97;5026118;28;20212;-80
2022/01/18 08:56:07;;;;;;;2.63;1.20;;;;;;;-0.36;48.88;94849.69;5025945;28;20281;-81
2022/01/18 08:58:34;;;;;;;11.25;1.77;;;;;;;-0.69;49.16;94855.28;5025714;28;20017;-80
2022/01/18 09:01:02;;;;;;;6.47;1.60;;;;;;;-0.64;48.70;94844.97;5025993;28;20017;-83
2022/01/18 09:03:27;;;;;;;5.47;1.40;;;;;;;-0.64;48.88;94871.94;5025730;28;20029;-82
2022/01/18 09:05:53;;;;;;;3.05;1.58;;;;;;;-0.58;49.14;94849.34;5024588;28;20033;-81
2022/01/18 09:08:20;;;;;;;4.40;1.58;;;;;;;-0.67;49.38;94861.94;5025772;28;20033;-83
2022/01/18 09:10:47;;;;;;;6.40;1.48;;;;;;;-0.75;48.90;94850.91;5025724;28;20197;-83
2022/01/18 09:13:14;;;;;;;3.50;1.40;;;;;;;-0.74;49.10;94852.53;5025603;28;20116;-83
2022/01/18 09:15:42;;;;;;;2.35;1.08;;;;;;;-0.69;49.46;94831.72;5025856;28;20201;-85
2022/01/18 09:18:17;;;;;;;6.10;1.20;;;;;;;-0.59;48.43;94839.06;5041216;28;20065;-85
2022/01/18 09:20:43;;;;;;;5.65;1.42;;;;;;;-0.64;48.24;94835.28;5025080;28;20026;-85
2022/01/18 09:23:09;;;;;;;4.70;1.58;;;;;;;-0.66;48.72;94858.28;5025877;28;20022;-82
2022/01/18 09:25:34;;;;;;;5.32;2.78;;;;;;;-0.67;49.73;94842.78;5025429;28;20132;-83
2022/01/18 09:28:00;;;;;;;9.27;1.52;;;;;;;-0.49;48.91;94849.81;5024211;28;20026;-83
2022/01/18 09:30:29;;;;;;;4.38;1.70;;;;;;;-0.51;49.10;94871.03;5025174;28;20200;-82
2022/01/18 09:32:56;;;;;;;4.90;1.73;;;;;;;-0.56;49.92;94842.06;5040618;28;20255;-82
2022/01/18 09:35:22;;;;;;;7.40;2.30;;;;;;;-0.56;49.87;94839.44;5025218;28;20348;-82
2022/01/18 09:37:48;;;;;;;8.68;2.42;;;;;;;-0.58;50.23;94872.91;5025001;28;20025;-82
2022/01/18 09:40:18;;;;;;;5.00;1.77;;;;;;;-0.51;50.16;94823.06;5025452;28;20025;-82
2022/01/18 09:42:50;;;;;;;9.07;2.22;;;;;;;-0.46;50.00;94817.97;5024941;28;20081;-82
2022/01/18 09:45:17;;;;;;;;;;;;;;;-0.37;50.66;94816.63;5024193;28;20311;-82
2022/01/18 09:47:45;;;;;;;7.07;2.20;;;;;;;-0.32;49.20;94814.16;5024889;28;19905;-82
2022/01/18 09:50:15;;;;;;;5.65;1.52;;;;;;;-0.39;49.35;94818.69;5040452;28;20028;-82
2022/01/18 09:52:40;;;;;;;4.80;2.08;;;;;;;-0.42;50.04;94845.31;5025187;28;20018;-83
2022/01/18 09:55:08;;;;;;;4.10;1.70;;;;;;;-0.56;50.59;94834.19;5024942;28;20081;-83
2022/01/18 09:57:34;;;;;;;5.35;2.40;;;;;;;-0.49;50.50;94834.13;5024771;28;20022;-82
2022/01/18 09:59:59;;;;;;;3.45;1.30;;;;;;;-0.58;50.14;94859.00;5024714;28;20026;-83
2022/01/18 10:02:26;;;;;;;6.22;1.90;;;;;;;-0.53;50.25;94839.00;5024325;28;20351;-83
2022/01/18 10:04:53;;;;;;;4.13;1.85;;;;;;;-0.38;50.79;94838.63;5039955;28;20076;-82
2022/01/18 10:07:32;;;;;;;5.63;1.83;;;;;;;-0.13;49.10;94842.94;5024493;28;20018;-82
2022/01/18 10:09:59;;;;;;;2.35;1.15;;;;;;;-0.10;48.83;94835.44;5024477;28;20021;-80
2022/01/18 10:12:24;;;;;;;4.85;1.73;;;;;;;-0.06;48.50;94841.03;5039639;28;20260;-82
2022/01/18 10:14:55;;;;;;;4.55;1.63;;;;;;;-0.08;48.73;94851.75;5024649;28;20026;-82
2022/01/18 10:17:34;;;;;;;4.53;2.00;;;;;;;0.01;49.58;94839.13;5024467;28;20042;-81
2022/01/18 10:20:02;;;;;;;4.63;1.33;;;;;;;0.00;49.03;94840.16;5024448;28;20025;-80
2022/01/18 10:22:39;;;;;;;6.55;1.90;;;;;;;0.10;49.49;94835.19;5024066;28;20304;-81
2022/01/18 10:25:26;;;;;;;7.25;2.15;;;;;;;0.21;48.44;94843.31;5024354;28;20030;-80
2022/01/18 10:27:53;;;;;;;5.28;1.70;;;;;;;0.42;48.59;94850.63;5024272;28;20064;-80
2022/01/18 10:30:44;;;;;;;6.32;1.88;;;;;;;0.45;47.37;94828.41;5039762;28;20026;-83
2022/01/18 10:33:20;;;;;;;5.63;1.45;;;;;;;0.31;47.25;94846.19;5039901;28;20026;-84
2022/01/18 10:36:21;;;;;;;4.05;1.58;;;;;;;0.11;48.31;94836.78;5039489;28;20033;-81
2022/01/18 10:38:50;;;;;;;3.95;1.33;;;;;;;0.12;48.40;94833.13;5021910;28;20037;-80
2022/01/18 10:41:27;;;;;;;6.68;1.85;;;;;;;0.16;48.46;94821.19;5023488;28;20104;-82
2022/01/18 10:44:14;;;;;;;9.98;1.73;;;;;;;0.13;47.85;94842.59;5023983;28;20366;-82
2022/01/18 10:46:52;;;;;;;12.80;1.77;;;;;;;-0.06;48.53;94813.03;5024105;28;20097;-82
2022/01/18 10:49:36;;;;;;;14.95;1.98;;;;;;;0.07;48.73;94806.00;5023883;28;20026;-83
2022/01/18 10:52:10;;;;;;;7.68;2.30;;;;;;;0.10;48.92;94823.88;5039316;28;20018;-83
2022/01/18 10:54:39;;;;;;;6.38;1.67;;;;;;;-0.02;49.12;94814.16;5022692;28;20199;-85
2022/01/18 10:57:06;;;;;;;8.20;1.85;;;;;;;0.02;48.83;94825.00;5023774;28;20033;-82
2022/01/18 10:59:34;;;;;;;6.22;2.53;;;;;;;0.06;49.36;94826.16;5023562;28;20025;-82
2022/01/18 11:02:20;;;;;;;8.20;2.15;;;;;;;0.17;49.47;94821.97;5023668;28;20045;-82
2022/01/18 11:04:49;;;;;;;3.55;1.40;;;;;;;0.17;47.83;94828.00;5023751;28;20026;-82
2022/01/18 11:07:18;;;;;;;5.07;1.80;;;;;;;-0.04;48.35;94826.69;5023546;28;20026;-82
2022/01/18 11:09:44;;;;;;;5.03;1.63;;;;;;;-0.18;48.45;94808.72;5023452;28;20033;-82
2022/01/18 11:12:10;;;;;;;6.18;1.88;;;;;;;-0.13;48.56;94811.50;5023373;28;20036;-83
2022/01/18 11:14:44;;;;;;;6.15;1.83;;;;;;;-0.06;48.74;94827.91;5022829;28;20028;-83
2022/01/18 11:17:19;;;;;;;3.03;1.58;;;;;;;-0.07;48.80;94834.19;5038931;28;20442;-83
2022/01/18 11:19:47;;;;;;;3.90;1.58;;;;;;;-0.04;48.89;94823.25;5023336;28;20029;-82
2022/01/18 11:22:13;;;;;;;5.07;1.77;;;;;;;0.08;49.02;94803.16;5023188;28;20247;-84
2022/01/18 11:24:42;;;;;;;5.90;2.00;;;;;;;0.25;48.80;94818.25;5023405;28;20022;-83
2022/01/18 11:27:14;;;;;;;6.20;1.60;;;;;;;0.35;48.11;94823.72;5022932;28;20053;-83
2022/01/18 11:29:47;;;;;;;6.75;1.75;;;;;;;0.18;47.50;94811.28;5022123;28;20018;-83
2022/01/18 11:32:13;;;;;;;3.75;1.75;;;;;;;0.04;47.92;94822.16;5023179;28;20022;-83
2022/01/18 11:35:01;;;;;;;6.13;1.90;;;;;;;0.09;47.97;94814.44;5021883;28;20222;-83
2022/01/18 11:37:29;;;;;;;5.07;1.80;;;;;;;0.15;47.96;94824.81;5023100;28;20227;-83
2022/01/18 11:39:58;;;;;;;11.45;2.08;;;;;;;0.24;47.87;94821.88;5022765;28;20064;-83
2022/01/18 11:42:37;;;;;;;4.18;1.20;;;;;;;0.15;46.93;94821.41;5022796;28;20319;-83
2022/01/18 11:45:25;;;;;;;5.05;2.03;;;;;;;0.03;47.62;94837.09;5037999;28;20033;-83
2022/01/18 11:48:12;;;;;;;9.63;2.58;;;;;;;0.13;47.05;94823.44;5022604;28;20029;-83
2022/01/18 11:50:45;;;;;;;1.65;0.98;;;;;;;0.15;47.57;94827.44;5022584;28;20312;-83
2022/01/18 11:53:22;;;;;;;13.82;2.70;;;;;;;0.23;47.51;94828.94;5021738;28;20017;-83
2022/01/18 11:55:49;;;;;;;4.80;1.95;;;;;;;0.36;47.58;94826.09;5022872;28;20092;-83
2022/01/18 11:58:15;;;;;;;5.40;2.15;;;;;;;0.40;46.67;94824.63;5021399;28;20021;-83
2022/01/18 12:01:07;;;;;;;5.85;1.95;;;;;;;0.51;46.90;94812.56;5022837;28;20028;-83
2022/01/18 12:03:42;;;;;;;6.55;1.92;;;;;;;0.45;45.90;94820.53;5021895;28;20205;-84
2022/01/18 12:06:08;;;;;;;7.15;2.15;;;;;;;0.47;46.42;94821.94;5020885;28;20034;-81
2022/01/18 12:08:34;;;;;;;13.43;2.78;;;;;;;0.53;46.22;94828.06;5037895;28;20028;-81
2022/01/18 12:11:01;;;;;;;4.30;1.65;;;;;;;0.45;46.17;94818.72;5037696;28;20029;-81
2022/01/18 12:13:35;;;;;;;3.45;1.42;;;;;;;0.35;46.05;94815.88;5022266;28;20037;-81
2022/01/18 12:16:16;;;;;;;4.50;1.50;;;;;;;0.37;45.62;94817.22;5022548;28;20133;-81
2022/01/18 12:18:51;;;;;;;3.83;1.80;;;;;;;0.34;46.03;94817.66;5021448;28;20026;-80
2022/01/18 12:21:20;;;;;;;4.30;1.42;;;;;;;0.24;46.17;94790.41;5022365;28;20330;-82
2022/01/18 12:23:46;;;;;;;3.33;1.55;;;;;;;0.28;46.21;94796.78;5037746;28;20312;-82
2022/01/18 12:37:05;;;;;;;5.95;1.73;;;;;;;0.10;45.33;94803.72;5025978;28;20060;-84
2022/01/18 12:39:54;;;;;;;3.42;1.30;;;;;;;-0.01;44.82;94813.13;5026275;28;20029;-81
2022/01/18 12:44:57;;;;;;;7.15;2.00;;;;;;;-0.12;44.72;94813.09;5026228;28;20050;-83
2022/01/18 12:47:23;;;;;;;4.50;1.73;;;;;;;-0.01;45.75;94792.16;5025879;28;20064;-82
2022/01/18 12:49:51;;;;;;;5.60;1.48;;;;;;;0.16;45.16;94776.59;5041271;28;20025;-83
2022/01/18 12:52:16;;;;;;;7.07;1.88;;;;;;;0.23;45.16;94779.13;5024646;28;20212;-83
2022/01/18 12:54:42;;;;;;;9.05;2.10;;;;;;;0.26;45.43;94785.72;5025886;28;20029;-81
2022/01/18 12:57:12;;;;;;;3.15;1.17;;;;;;;0.32;45.17;94784.81;5041216;28;20053;-82
2022/01/18 12:59:56;;;;;;;4.72;1.52;;;;;;;0.37;45.11;94779.72;5025797;28;20220;-81
2022/01/18 13:02:22;;;;;;;8.60;2.25;;;;;;;0.40;44.48;94785.28;5025557;28;20327;-81
2022/01/18 13:05:03;;;;;;;3.33;1.30;;;;;;;0.38;44.46;94783.94;5040902;28;20025;-82
2022/01/18 13:07:28;;;;;;;4.40;1.67;;;;;;;0.19;43.80;94781.38;5024414;28;20048;-82
2022/01/18 13:09:59;;;;;;;4.80;1.70;;;;;;;0.08;44.83;94776.13;5025590;28;20025;-81